Time;durP1;ratioP1;P1;durP2;ratioP2;P2;SDS_P1;SDS_P2;PMS_P1;PMS_P2;Temp;Humidity;BMP_temperature;BMP_pressure;BME280_temperature;BME280_humidity;BME280_pressure;Samples;Min_cycle;Max_cycle;Signal;HPM_P1;HPM_P2
2021/08/29 00:01:09;;;;;;;11.55;4.20;;;;;;;;;;5059233;28;20512;-75
2021/08/29 00:03:35;;;;;;;13.75;4.68;;;;;;;;;;5045219;28;20126;-74
2021/08/29 00:06:01;;;;;;;13.45;4.65;;;;;;;;;;5044667;28;20079;-74
2021/08/29 00:08:27;;;;;;;18.85;4.45;;;;;;;;;;5047100;28;20041;-74
2021/08/29 00:10:54;;;;;;;11.82;4.65;;;;;;;;;;5043571;28;20091;-74
2021/08/29 00:13:20;;;;;;;12.60;4.53;;;;;;;;;;5046664;28;20080;-75
2021/08/29 00:15:46;;;;;;;11.07;3.78;;;;;;;;;;5062572;28;20064;-74
2021/08/29 00:18:12;;;;;;;15.23;4.82;;;;;;;;;;5030250;28;20646;-74
2021/08/29 00:20:38;;;;;;;14.35;5.15;;;;;;;;;;5047905;28;20036;-75
2021/08/29 00:23:04;;;;;;;10.90;4.45;;;;;;;;;;5027245;28;20136;-75
2021/08/29 00:25:30;;;;;;;14.75;4.38;;;;;;;;;;5048371;28;20032;-74
2021/08/29 00:27:57;;;;;;;12.25;4.13;;;;;;;;;;5038148;28;20492;-74
2021/08/29 00:30:23;;;;;;;14.43;4.50;;;;;;;;;;5019697;28;20171;-74
2021/08/29 00:32:49;;;;;;;10.65;4.35;;;;;;;;;;5019329;28;20055;-75
2021/08/29 00:35:15;;;;;;;11.40;4.53;;;;;;;;;;5056843;28;20052;-74
2021/08/29 00:37:41;;;;;;;10.55;3.53;;;;;;;;;;5046637;28;20447;-75
2021/08/29 00:40:08;;;;;;;14.90;4.03;;;;;;;;;;5043785;28;20068;-74
2021/08/29 00:42:34;;;;;;;11.57;3.70;;;;;;;;;;5059924;28;20488;-74
2021/08/29 00:45:00;;;;;;;10.48;4.00;;;;;;;;;;5030629;28;20170;-75
2021/08/29 00:47:27;;;;;;;16.42;4.10;;;;;;;;;;5041635;28;20041;-75
2021/08/29 00:49:53;;;;;;;15.93;4.53;;;;;;;;;;5042467;28;20037;-74
2021/08/29 00:52:20;;;;;;;12.88;3.72;;;;;;;;;;5039705;28;20053;-74
2021/08/29 00:54:46;;;;;;;13.88;4.35;;;;;;;;;;5029224;28;20464;-74
2021/08/29 00:57:12;;;;;;;15.68;3.92;;;;;;;;;;5043005;28;20029;-74
2021/08/29 00:59:40;;;;;;;17.00;4.35;;;;;;;;;;5046021;28;20638;-74
2021/08/29 01:02:11;;;;;;;16.42;4.07;;;;;;;;;;5042993;28;20038;-74
2021/08/29 01:04:43;;;;;;;12.55;3.65;;;;;;;;;;5042764;28;20124;-74
2021/08/29 01:07:12;;;;;;;14.05;3.72;;;;;;;;;;5034145;28;20042;-74
2021/08/29 01:09:39;;;;;;;10.45;3.42;;;;;;;;;;5057715;28;20049;-74
2021/08/29 01:12:06;;;;;;;11.35;3.55;;;;;;;;;;5019980;28;20397;-74
2021/08/29 01:14:33;;;;;;;10.32;3.25;;;;;;;;;;5042275;28;20046;-74
2021/08/29 01:17:01;;;;;;;14.88;3.45;;;;;;;;;;5029415;28;20049;-74
2021/08/29 01:19:39;;;;;;;14.80;3.50;;;;;;;;;;5043878;28;20060;-74
2021/08/29 01:22:07;;;;;;;12.15;3.92;;;;;;;;;;5045454;28;20085;-74
2021/08/29 01:24:34;;;;;;;19.73;3.83;;;;;;;;;;5042476;28;20583;-74
2021/08/29 01:27:03;;;;;;;14.60;3.60;;;;;;;;;;5023287;28;20053;-74
2021/08/29 01:29:31;;;;;;;12.55;3.88;;;;;;;;;;5046291;28;20068;-74
2021/08/29 01:31:57;;;;;;;15.77;4.18;;;;;;;;;;5041239;28;20037;-74
2021/08/29 01:34:24;;;;;;;15.82;4.13;;;;;;;;;;5048457;28;20044;-74
2021/08/29 01:36:51;;;;;;;17.40;3.85;;;;;;;;;;5048005;28;20049;-74
2021/08/29 01:39:18;;;;;;;11.20;3.40;;;;;;;;;;5043279;28;20087;-74
2021/08/29 01:41:45;;;;;;;9.48;3.53;;;;;;;;;;5044509;28;20111;-74
2021/08/29 01:44:11;;;;;;;11.93;3.65;;;;;;;;;;5038112;28;20079;-74
2021/08/29 01:46:39;;;;;;;17.48;4.15;;;;;;;;;;5046446;28;20045;-74
2021/08/29 01:49:07;;;;;;;15.18;3.35;;;;;;;;;;5029100;28;20102;-74
2021/08/29 01:51:33;;;;;;;11.43;4.07;;;;;;;;;;5046366;28;20032;-74
2021/08/29 01:54:00;;;;;;;11.40;3.58;;;;;;;;;;5026191;28;20371;-74
2021/08/29 01:56:26;;;;;;;10.60;3.30;;;;;;;;;;5027763;28;20040;-74
2021/08/29 01:58:53;;;;;;;11.55;3.40;;;;;;;;;;5020490;28;20055;-75
2021/08/29 02:01:19;;;;;;;11.73;3.08;;;;;;;;;;5023536;28;20037;-75
2021/08/29 02:03:46;;;;;;;17.42;3.95;;;;;;;;;;5058224;28;20461;-74
2021/08/29 02:06:17;;;;;;;12.98;3.35;;;;;;;;;;5021721;28;20036;-74
2021/08/29 02:08:52;;;;;;;13.88;4.00;;;;;;;;;;5055159;28;20103;-74
2021/08/29 02:11:19;;;;;;;16.27;4.32;;;;;;;;;;5023299;28;20162;-74
2021/08/29 02:13:46;;;;;;;16.88;4.03;;;;;;;;;;5054325;28;20041;-74
2021/08/29 02:16:15;;;;;;;14.82;3.75;;;;;;;;;;5023277;28;20113;-74
2021/08/29 02:18:42;;;;;;;14.98;3.70;;;;;;;;;;5041973;28;20102;-74
2021/08/29 02:21:09;;;;;;;14.32;3.92;;;;;;;;;;5046035;28;20505;-74
2021/08/29 02:23:35;;;;;;;12.90;4.00;;;;;;;;;;5044290;28;20124;-75
2021/08/29 02:26:01;;;;;;;16.75;4.78;;;;;;;;;;5024535;28;20116;-74
2021/08/29 02:28:28;;;;;;;11.60;3.67;;;;;;;;;;5026533;28;20053;-74
2021/08/29 02:30:54;;;;;;;14.23;3.42;;;;;;;;;;5040241;28;20064;-74
2021/08/29 02:33:21;;;;;;;13.93;4.00;;;;;;;;;;5047779;28;20067;-74
2021/08/29 02:35:48;;;;;;;14.75;4.20;;;;;;;;;;5041322;28;20034;-74
2021/08/29 02:38:14;;;;;;;14.07;3.80;;;;;;;;;;5044382;28;20566;-74
2021/08/29 02:40:42;;;;;;;16.02;4.30;;;;;;;;;;5023747;28;20398;-74
2021/08/29 02:43:09;;;;;;;11.50;3.60;;;;;;;;;;5027923;28;20048;-74
2021/08/29 02:45:36;;;;;;;17.90;4.30;;;;;;;;;;5026040;28;20045;-74
2021/08/29 02:48:03;;;;;;;12.05;3.28;;;;;;;;;;5022393;28;20053;-74
2021/08/29 02:50:29;;;;;;;18.33;4.30;;;;;;;;;;5044735;28;20049;-74
2021/08/29 02:52:55;;;;;;;26.70;5.50;;;;;;;;;;5028103;28;20064;-74
2021/08/29 02:55:23;;;;;;;11.35;3.53;;;;;;;;;;5042941;28;20152;-74
2021/08/29 02:57:51;;;;;;;19.23;4.25;;;;;;;;;;5025884;28;20132;-75
2021/08/29 03:00:17;;;;;;;17.48;3.85;;;;;;;;;;5027421;28;20053;-74
2021/08/29 03:02:44;;;;;;;14.70;3.90;;;;;;;;;;5041506;28;20076;-74
2021/08/29 03:05:10;;;;;;;20.52;4.20;;;;;;;;;;5044114;28;20235;-74
2021/08/29 03:07:37;;;;;;;14.30;4.28;;;;;;;;;;5039218;28;20036;-75
2021/08/29 03:10:03;;;;;;;16.80;4.15;;;;;;;;;;5045602;28;20131;-74
2021/08/29 03:12:30;;;;;;;20.15;4.85;;;;;;;;;;5023567;28;20124;-74
2021/08/29 03:14:56;;;;;;;14.80;4.15;;;;;;;;;;5031800;28;20075;-74
2021/08/29 03:17:23;;;;;;;18.73;4.65;;;;;;;;;;5051576;28;20479;-74
2021/08/29 03:19:51;;;;;;;20.50;4.43;;;;;;;;;;5047369;28;20045;-74
2021/08/29 03:22:17;;;;;;;15.90;3.92;;;;;;;;;;5024218;28;20404;-74
2021/08/29 03:24:44;;;;;;;15.27;4.13;;;;;;;;;;5042371;28;20499;-74
2021/08/29 03:27:10;;;;;;;20.38;4.63;;;;;;;;;;5025131;28;20052;-74
2021/08/29 03:29:37;;;;;;;23.75;5.75;;;;;;;;;;5059762;28;20429;-74
2021/08/29 03:32:03;;;;;;;23.50;4.80;;;;;;;;;;5042751;28;20055;-74
2021/08/29 03:34:30;;;;;;;16.98;4.25;;;;;;;;;;5047310;28;20048;-74
2021/08/29 03:36:57;;;;;;;15.23;4.40;;;;;;;;;;5029450;28;20052;-75
2021/08/29 03:39:26;;;;;;;18.40;3.60;;;;;;;;;;5049688;28;20053;-74
2021/08/29 03:41:55;;;;;;;22.42;4.65;;;;;;;;;;5047117;28;20112;-75
2021/08/29 03:44:21;;;;;;;17.02;4.63;;;;;;;;;;5025147;28;20045;-74
2021/08/29 03:46:47;;;;;;;16.55;4.22;;;;;;;;;;5028112;28;20052;-74
2021/08/29 03:49:14;;;;;;;12.38;3.80;;;;;;;;;;5027180;28;20495;-74
2021/08/29 03:51:41;;;;;;;16.90;4.88;;;;;;;;;;5046430;28;20041;-74
2021/08/29 03:54:08;;;;;;;18.58;4.82;;;;;;;;;;5030410;28;20048;-74
2021/08/29 03:56:35;;;;;;;23.73;5.57;;;;;;;;;;5021516;28;20037;-74
2021/08/29 03:59:02;;;;;;;18.65;4.63;;;;;;;;;;5041735;28;20128;-74
2021/08/29 04:01:28;;;;;;;15.90;4.55;;;;;;;;;;5042126;28;20461;-74
2021/08/29 04:03:55;;;;;;;19.40;5.50;;;;;;;;;;5043425;28;20048;-74
2021/08/29 04:06:22;;;;;;;21.25;5.43;;;;;;;;;;5027894;28;20359;-74
2021/08/29 04:08:50;;;;;;;17.25;4.78;;;;;;;;;;5045915;28;20051;-74
2021/08/29 04:11:21;;;;;;;19.77;5.05;;;;;;;;;;5058744;28;20041;-74
2021/08/29 04:13:47;;;;;;;14.02;4.18;;;;;;;;;;5021950;28;20505;-74
2021/08/29 04:16:14;;;;;;;13.27;4.13;;;;;;;;;;5029473;28;20064;-74
2021/08/29 04:18:41;;;;;;;14.18;4.30;;;;;;;;;;5042643;28;20112;-74
2021/08/29 04:21:08;;;;;;;17.60;4.72;;;;;;;;;;5040835;28;20496;-74
2021/08/29 04:23:34;;;;;;;20.30;4.78;;;;;;;;;;5030788;28;20045;-74
2021/08/29 04:26:00;;;;;;;23.80;5.60;;;;;;;;;;5045226;28;20052;-74
2021/08/29 04:28:27;;;;;;;16.80;5.68;;;;;;;;;;5027174;28;20167;-74
2021/08/29 04:30:55;;;;;;;19.42;5.50;;;;;;;;;;5043402;28;20041;-74
2021/08/29 04:33:21;;;;;;;18.42;4.35;;;;;;;;;;5045406;28;20060;-74
2021/08/29 04:35:47;;;;;;;15.32;4.07;;;;;;;;;;5045806;28;20041;-74
2021/08/29 04:38:13;;;;;;;20.58;5.45;;;;;;;;;;5022290;28;20113;-74
2021/08/29 04:40:39;;;;;;;17.48;4.68;;;;;;;;;;5037698;28;20129;-74
2021/08/29 04:43:06;;;;;;;16.67;4.70;;;;;;;;;;5027285;28;20751;-74
2021/08/29 04:45:32;;;;;;;22.45;4.90;;;;;;;;;;5042456;28;20701;-74
2021/08/29 04:47:58;;;;;;;17.70;4.97;;;;;;;;;;5027083;28;20043;-74
2021/08/29 04:50:24;;;;;;;20.10;4.10;;;;;;;;;;5040075;28;20116;-74
2021/08/29 04:52:50;;;;;;;17.45;4.57;;;;;;;;;;5045097;28;20043;-75
2021/08/29 04:55:17;;;;;;;21.75;4.90;;;;;;;;;;5045324;28;20037;-74
2021/08/29 04:57:43;;;;;;;17.92;4.85;;;;;;;;;;5044612;28;20412;-74
2021/08/29 05:00:09;;;;;;;20.77;4.90;;;;;;;;;;5024894;28;20052;-74
2021/08/29 05:02:35;;;;;;;16.88;4.07;;;;;;;;;;5026030;28;20091;-74
2021/08/29 05:05:01;;;;;;;14.77;3.63;;;;;;;;;;5044072;28;20079;-74
2021/08/29 05:07:28;;;;;;;18.40;4.45;;;;;;;;;;5034938;28;20124;-74
2021/08/29 05:09:54;;;;;;;18.73;3.40;;;;;;;;;;5029764;28;20042;-75
2021/08/29 05:12:20;;;;;;;18.65;4.65;;;;;;;;;;5021870;28;21107;-74
2021/08/29 05:14:46;;;;;;;17.13;3.80;;;;;;;;;;5027407;28;20049;-74
2021/08/29 05:17:12;;;;;;;20.17;3.92;;;;;;;;;;5045043;28;20037;-74
2021/08/29 05:19:38;;;;;;;14.48;3.53;;;;;;;;;;5026360;28;20099;-74
2021/08/29 05:22:05;;;;;;;16.50;4.07;;;;;;;;;;5038220;28;20049;-74
2021/08/29 05:24:31;;;;;;;19.85;4.45;;;;;;;;;;5023856;28;20041;-74
2021/08/29 05:26:57;;;;;;;16.92;3.92;;;;;;;;;;5045748;28;20064;-75
2021/08/29 05:29:23;;;;;;;17.73;4.72;;;;;;;;;;5028067;28;20122;-75
2021/08/29 05:31:49;;;;;;;19.17;3.75;;;;;;;;;;5029072;28;20049;-74
2021/08/29 05:34:15;;;;;;;24.75;4.05;;;;;;;;;;5028926;28;20052;-75
2021/08/29 05:36:42;;;;;;;26.15;4.47;;;;;;;;;;5029735;28;20480;-75
2021/08/29 05:39:08;;;;;;;17.35;4.18;;;;;;;;;;5039721;28;20155;-74
2021/08/29 05:41:35;;;;;;;27.00;4.13;;;;;;;;;;5023761;28;20044;-74
2021/08/29 05:44:01;;;;;;;17.00;3.83;;;;;;;;;;5038382;28;20111;-74
2021/08/29 05:46:27;;;;;;;20.67;4.22;;;;;;;;;;5038648;28;20144;-75
2021/08/29 05:48:54;;;;;;;18.77;4.35;;;;;;;;;;5049220;28;20095;-76
2021/08/29 05:51:20;;;;;;;22.10;4.22;;;;;;;;;;5034033;28;20792;-74
2021/08/29 05:53:46;;;;;;;20.30;3.90;;;;;;;;;;5022328;28;20484;-75
2021/08/29 05:56:12;;;;;;;22.95;5.38;;;;;;;;;;5023539;28;20223;-75
2021/08/29 05:58:39;;;;;;;18.23;3.85;;;;;;;;;;5041388;28;20540;-74
2021/08/29 06:01:05;;;;;;;23.65;4.30;;;;;;;;;;5026378;28;20045;-76
2021/08/29 06:03:31;;;;;;;24.38;4.00;;;;;;;;;;5045146;28;20033;-76
2021/08/29 06:05:58;;;;;;;22.40;4.72;;;;;;;;;;5042363;28;20048;-76
2021/08/29 06:08:24;;;;;;;25.88;4.50;;;;;;;;;;5046667;28;20037;-74
2021/08/29 06:10:51;;;;;;;23.65;4.80;;;;;;;;;;5037093;28;20061;-74
2021/08/29 06:13:17;;;;;;;26.55;5.70;;;;;;;;;;5018033;28;20045;-74
2021/08/29 06:15:43;;;;;;;20.95;4.22;;;;;;;;;;5022462;28;20060;-74
2021/08/29 06:18:09;;;;;;;27.00;4.18;;;;;;;;;;5039116;28;20124;-74
2021/08/29 06:20:35;;;;;;;23.67;5.25;;;;;;;;;;5043672;28;20037;-74
2021/08/29 06:23:02;;;;;;;23.08;5.18;;;;;;;;;;5040862;28;20046;-74
2021/08/29 06:25:28;;;;;;;18.85;4.63;;;;;;;;;;5038931;28;20041;-74
2021/08/29 06:27:54;;;;;;;23.05;4.60;;;;;;;;;;5039191;28;20083;-75
2021/08/29 06:30:20;;;;;;;21.92;3.95;;;;;;;;;;5019362;28;21530;-74
2021/08/29 06:32:46;;;;;;;22.95;4.47;;;;;;;;;;5034872;28;20141;-74
2021/08/29 06:35:12;;;;;;;23.77;4.95;;;;;;;;;;5045146;28;20452;-74
2021/08/29 06:37:39;;;;;;;26.15;5.22;;;;;;;;;;5023290;28;20056;-73
2021/08/29 06:40:05;;;;;;;21.92;4.53;;;;;;;;;;5021604;28;20122;-74
2021/08/29 06:42:31;;;;;;;24.52;5.15;;;;;;;;;;5057609;28;20112;-74
2021/08/29 06:44:58;;;;;;;21.90;4.95;;;;;;;;;;5041262;28;20480;-74
2021/08/29 06:47:24;;;;;;;25.92;5.45;;;;;;;;;;5054161;28;20087;-74
2021/08/29 06:49:51;;;;;;;27.65;5.57;;;;;;;;;;5013671;28;20087;-74
2021/08/29 06:52:17;;;;;;;27.80;5.78;;;;;;;;;;5053389;28;20123;-74
2021/08/29 06:54:43;;;;;;;21.92;4.85;;;;;;;;;;5039149;28;20124;-74
2021/08/29 06:57:10;;;;;;;25.20;5.18;;;;;;;;;;5044386;28;20117;-77
2021/08/29 06:59:36;;;;;;;23.67;5.15;;;;;;;;;;5045433;28;20048;-74
2021/08/29 07:02:03;;;;;;;25.90;4.85;;;;;;;;;;5044049;28;20415;-75
2021/08/29 07:04:29;;;;;;;25.45;5.97;;;;;;;;;;5041145;28;20068;-74
2021/08/29 07:06:55;;;;;;;21.45;5.18;;;;;;;;;;5048894;28;20453;-74
2021/08/29 07:09:22;;;;;;;28.90;5.22;;;;;;;;;;5043595;28;20136;-75
2021/08/29 07:11:48;;;;;;;25.90;6.32;;;;;;;;;;5053996;28;20075;-75
2021/08/29 07:14:14;;;;;;;27.77;5.03;;;;;;;;;;5024533;28;20136;-73
2021/08/29 07:16:41;;;;;;;32.50;6.53;;;;;;;;;;5044082;28;20052;-74
2021/08/29 07:19:08;;;;;;;24.50;5.35;;;;;;;;;;5040274;28;20049;-74
2021/08/29 07:21:34;;;;;;;26.98;6.95;;;;;;;;;;5022198;28;20044;-74
2021/08/29 07:24:00;;;;;;;34.00;6.35;;;;;;;;;;5027537;28;20067;-74
2021/08/29 07:26:26;;;;;;;29.65;5.45;;;;;;;;;;5021802;28;20049;-74
2021/08/29 07:28:52;;;;;;;24.48;4.65;;;;;;;;;;5043287;28;20319;-74
2021/08/29 07:31:18;;;;;;;25.25;5.13;;;;;;;;;;5042015;28;20033;-73
2021/08/29 07:33:45;;;;;;;27.83;5.50;;;;;;;;;;5045030;28;20098;-74
2021/08/29 07:36:11;;;;;;;29.67;6.22;;;;;;;;;;5039585;28;21631;-73
2021/08/29 07:38:37;;;;;;;23.77;5.57;;;;;;;;;;5041704;28;20045;-74
2021/08/29 07:41:03;;;;;;;27.33;6.07;;;;;;;;;;5024543;28;20476;-74
2021/08/29 07:43:30;;;;;;;20.35;4.97;;;;;;;;;;5044688;28;20037;-74
2021/08/29 07:45:56;;;;;;;29.92;5.43;;;;;;;;;;5023353;28;20064;-82
2021/08/29 07:48:22;;;;;;;24.40;5.15;;;;;;;;;;5036765;28;20045;-80
2021/08/29 07:50:48;;;;;;;24.45;5.25;;;;;;;;;;5054675;28;20053;-73
2021/08/29 07:53:14;;;;;;;24.85;5.50;;;;;;;;;;5040571;28;20048;-73
2021/08/29 07:55:41;;;;;;;24.98;5.57;;;;;;;;;;5019646;28;20052;-74
2021/08/29 07:58:07;;;;;;;19.80;5.05;;;;;;;;;;5022615;28;20049;-73
2021/08/29 08:00:33;;;;;;;16.75;4.95;;;;;;;;;;5032357;28;20033;-73
2021/08/29 08:02:59;;;;;;;26.70;5.45;;;;;;;;;;5039630;28;20036;-73
2021/08/29 08:05:26;;;;;;;21.17;5.20;;;;;;;;;;5036939;28;20170;-73
2021/08/29 08:07:52;;;;;;;28.77;5.60;;;;;;;;;;5031157;28;20397;-73
2021/08/29 08:10:21;;;;;;;32.50;6.00;;;;;;;;;;5039213;28;20561;-76
2021/08/29 08:12:47;;;;;;;19.95;5.20;;;;;;;;;;5039960;28;20132;-74
2021/08/29 08:15:13;;;;;;;25.02;5.80;;;;;;;;;;5050980;28;20127;-75
2021/08/29 08:17:40;;;;;;;19.17;5.72;;;;;;;;;;5032510;28;20412;-73
2021/08/29 08:20:07;;;;;;;18.70;5.47;;;;;;;;;;5050682;28;20202;-73
2021/08/29 08:22:34;;;;;;;21.85;5.93;;;;;;;;;;5038451;28;20053;-73
2021/08/29 08:25:00;;;;;;;24.70;6.00;;;;;;;;;;5041249;28;20147;-73
2021/08/29 08:27:26;;;;;;;14.90;5.47;;;;;;;;;;5045162;28;20045;-73
2021/08/29 08:29:52;;;;;;;23.77;5.35;;;;;;;;;;5046438;28;20135;-73
2021/08/29 08:32:18;;;;;;;18.63;5.68;;;;;;;;;;5050474;28;20056;-73
2021/08/29 08:34:45;;;;;;;18.90;6.57;;;;;;;;;;5050460;28;20089;-73
2021/08/29 08:37:11;;;;;;;21.33;5.55;;;;;;;;;;5033452;28;20052;-73
2021/08/29 08:39:37;;;;;;;14.88;4.88;;;;;;;;;;5050417;28;20464;-73
2021/08/29 08:42:04;;;;;;;20.77;4.85;;;;;;;;;;5050291;28;20135;-73
2021/08/29 08:44:31;;;;;;;18.25;5.43;;;;;;;;;;5055674;28;20049;-73
2021/08/29 08:46:57;;;;;;;12.10;5.28;;;;;;;;;;5034711;28;20072;-73
2021/08/29 08:49:25;;;;;;;16.08;4.55;;;;;;;;;;5032075;28;20111;-73
2021/08/29 08:51:53;;;;;;;19.85;5.40;;;;;;;;;;5053137;28;20377;-73
2021/08/29 08:54:19;;;;;;;17.90;5.57;;;;;;;;;;5053214;28;20102;-73
2021/08/29 08:56:47;;;;;;;17.15;5.07;;;;;;;;;;5058281;28;20115;-73
2021/08/29 08:59:14;;;;;;;22.15;6.13;;;;;;;;;;5050951;28;20033;-73
2021/08/29 09:01:41;;;;;;;24.85;5.50;;;;;;;;;;5066156;28;20131;-73
2021/08/29 09:04:07;;;;;;;19.70;6.07;;;;;;;;;;5051486;28;20041;-73
2021/08/29 09:06:34;;;;;;;20.40;6.20;;;;;;;;;;5051363;28;20148;-73
2021/08/29 09:09:03;;;;;;;15.80;5.95;;;;;;;;;;5031310;28;20103;-73
2021/08/29 09:11:32;;;;;;;23.88;7.57;;;;;;;;;;5065481;28;20055;-73
2021/08/29 09:13:58;;;;;;;16.33;5.75;;;;;;;;;;5049465;28;20076;-73
2021/08/29 09:16:25;;;;;;;23.23;7.00;;;;;;;;;;5051608;28;20274;-73
2021/08/29 09:18:56;;;;;;;14.45;6.10;;;;;;;;;;5050016;28;20120;-73
2021/08/29 09:21:24;;;;;;;15.88;6.03;;;;;;;;;;5049467;28;20475;-74
2021/08/29 09:23:51;;;;;;;21.17;6.32;;;;;;;;;;5049664;28;20041;-73
2021/08/29 09:26:19;;;;;;;16.05;5.80;;;;;;;;;;5049953;28;20037;-73
2021/08/29 09:28:46;;;;;;;15.10;5.43;;;;;;;;;;5049479;28;20041;-73
2021/08/29 09:31:14;;;;;;;17.35;5.40;;;;;;;;;;5050968;28;20107;-73
2021/08/29 09:33:40;;;;;;;15.70;5.70;;;;;;;;;;5033710;28;20073;-73
2021/08/29 09:36:08;;;;;;;16.45;5.55;;;;;;;;;;5052001;28;20402;-73
2021/08/29 09:38:39;;;;;;;13.75;5.13;;;;;;;;;;5046411;28;20537;-73
2021/08/29 09:41:20;;;;;;;16.00;6.10;;;;;;;;;;5054754;28;20045;-73
2021/08/29 09:43:46;;;;;;;13.70;5.20;;;;;;;;;;5048413;28;20037;-73
2021/08/29 09:46:12;;;;;;;14.27;5.03;;;;;;;;;;5041630;28;20044;-73
2021/08/29 09:48:39;;;;;;;12.27;3.88;;;;;;;;;;5031434;28;20049;-73
2021/08/29 09:51:05;;;;;;;14.57;4.75;;;;;;;;;;5050415;28;20045;-73
2021/08/29 09:53:42;;;;;;;9.13;4.28;;;;;;;;;;5052402;28;20058;-73
2021/08/29 09:56:19;;;;;;;12.40;4.05;;;;;;;;;;5031851;28;20071;-73
2021/08/29 09:58:46;;;;;;;11.35;3.92;;;;;;;;;;5049692;28;20489;-73
2021/08/29 10:01:14;;;;;;;10.82;4.35;;;;;;;;;;5050424;28;20142;-73
2021/08/29 10:03:41;;;;;;;18.50;4.70;;;;;;;;;;5050813;28;20048;-73
2021/08/29 10:06:18;;;;;;;13.20;4.30;;;;;;;;;;5038828;28;20469;-73
2021/08/29 10:08:45;;;;;;;11.60;4.10;;;;;;;;;;5040072;28;20109;-73
2021/08/29 10:11:12;;;;;;;11.82;3.78;;;;;;;;;;5050236;28;20178;-73
2021/08/29 10:13:39;;;;;;;10.70;4.15;;;;;;;;;;5052421;28;20052;-73
2021/08/29 10:16:06;;;;;;;9.35;4.13;;;;;;;;;;5049298;28;20061;-73
2021/08/29 10:18:35;;;;;;;9.25;4.20;;;;;;;;;;5030041;28;20152;-73
2021/08/29 10:21:02;;;;;;;13.02;4.65;;;;;;;;;;5029126;28;20057;-73
2021/08/29 10:23:28;;;;;;;9.80;4.28;;;;;;;;;;5031251;28;20091;-73
2021/08/29 10:25:56;;;;;;;9.73;4.45;;;;;;;;;;5034735;28;20033;-73
2021/08/29 10:28:25;;;;;;;16.83;4.80;;;;;;;;;;5036437;28;20056;-73
2021/08/29 10:30:55;;;;;;;12.40;4.03;;;;;;;;;;5034580;28;20045;-73
2021/08/29 10:33:22;;;;;;;10.63;4.20;;;;;;;;;;5053822;28;20045;-73
2021/08/29 10:35:50;;;;;;;13.57;4.60;;;;;;;;;;5034625;28;20407;-73
2021/08/29 10:38:17;;;;;;;13.75;4.70;;;;;;;;;;5037992;28;20083;-73
2021/08/29 10:40:46;;;;;;;15.30;4.10;;;;;;;;;;5045468;28;20052;-73
2021/08/29 10:43:14;;;;;;;13.65;3.55;;;;;;;;;;5072060;28;20104;-73
2021/08/29 10:45:40;;;;;;;10.93;3.88;;;;;;;;;;5052474;28;20044;-73
2021/08/29 10:48:08;;;;;;;9.90;3.67;;;;;;;;;;5053662;28;20037;-73
2021/08/29 10:50:34;;;;;;;19.20;5.13;;;;;;;;;;5034000;28;20103;-74
2021/08/29 10:53:01;;;;;;;12.75;4.30;;;;;;;;;;5027143;28;20065;-75
2021/08/29 10:55:29;;;;;;;10.65;4.70;;;;;;;;;;5055237;28;20057;-75
2021/08/29 10:58:02;;;;;;;14.20;4.88;;;;;;;;;;5046955;28;20120;-75
2021/08/29 11:00:29;;;;;;;;;;;;;;;;;;5055425;28;20441;-75
2021/08/29 11:02:55;;;;;;;12.23;4.68;;;;;;;;;;5053652;28;20046;-75
2021/08/29 11:05:25;;;;;;;11.82;4.47;;;;;;;;;;5038839;28;20040;-74
2021/08/29 11:07:52;;;;;;;14.65;5.10;;;;;;;;;;5034598;28;20049;-74
2021/08/29 11:10:37;;;;;;;16.20;5.38;;;;;;;;;;5047806;28;20135;-74
2021/08/29 11:13:22;;;;;;;13.93;4.78;;;;;;;;;;5035364;28;20041;-75
2021/08/29 11:15:48;;;;;;;14.32;5.10;;;;;;;;;;5053067;28;20045;-74
2021/08/29 11:18:14;;;;;;;9.73;4.57;;;;;;;;;;5054192;28;20369;-74
2021/08/29 11:20:56;;;;;;;10.85;4.07;;;;;;;;;;5046121;28;20139;-75
2021/08/29 11:23:41;;;;;;;11.75;4.88;;;;;;;;;;5052367;28;20488;-74
2021/08/29 11:26:27;;;;;;;10.68;4.72;;;;;;;;;;5036188;28;20355;-74
2021/08/29 11:28:53;;;;;;;14.45;4.65;;;;;;;;;;5051611;28;20045;-74
2021/08/29 11:31:38;;;;;;;11.93;4.60;;;;;;;;;;5051607;28;20041;-73
2021/08/29 11:34:07;;;;;;;12.07;4.30;;;;;;;;;;5054289;28;20341;-74
2021/08/29 11:36:33;;;;;;;11.52;4.55;;;;;;;;;;5053592;28;20069;-73
2021/08/29 11:39:00;;;;;;;10.90;5.03;;;;;;;;;;5053152;28;20401;-73
2021/08/29 11:41:26;;;;;;;15.73;4.72;;;;;;;;;;5053919;28;20488;-74
2021/08/29 11:43:53;;;;;;;14.75;4.95;;;;;;;;;;5014651;28;20042;-74
2021/08/29 11:46:20;;;;;;;15.27;4.80;;;;;;;;;;5034524;28;20037;-74
2021/08/29 11:48:48;;;;;;;12.63;4.85;;;;;;;;;;5056731;28;20488;-74
2021/08/29 11:51:15;;;;;;;17.35;5.63;;;;;;;;;;5071712;28;20056;-74
2021/08/29 11:53:43;;;;;;;12.85;5.68;;;;;;;;;;5057981;28;20044;-74
2021/08/29 11:56:09;;;;;;;12.10;5.30;;;;;;;;;;5032940;28;20049;-75
2021/08/29 11:58:36;;;;;;;13.27;5.55;;;;;;;;;;5035829;28;20048;-75
2021/08/29 12:01:04;;;;;;;13.77;5.18;;;;;;;;;;5045520;28;20041;-74
2021/08/29 12:03:31;;;;;;;13.25;6.03;;;;;;;;;;5051354;28;20041;-74
2021/08/29 12:05:59;;;;;;;12.13;6.10;;;;;;;;;;5053658;28;20415;-75
2021/08/29 12:08:31;;;;;;;11.77;5.28;;;;;;;;;;5035998;28;20854;-73
2021/08/29 12:10:59;;;;;;;15.80;5.63;;;;;;;;;;5050258;28;20119;-73
2021/08/29 12:13:28;;;;;;;8.35;4.50;;;;;;;;;;5054525;28;20052;-73
2021/08/29 12:15:56;;;;;;;11.13;5.50;;;;;;;;;;5033140;28;20112;-75
2021/08/29 12:18:23;;;;;;;11.23;4.70;;;;;;;;;;5053723;28;20087;-75
2021/08/29 12:20:53;;;;;;;11.27;5.32;;;;;;;;;;5033127;28;20045;-74
2021/08/29 12:23:20;;;;;;;9.52;4.88;;;;;;;;;;5043785;28;20481;-73
2021/08/29 12:25:56;;;;;;;12.40;5.15;;;;;;;;;;5053738;28;20041;-73
2021/08/29 12:28:22;;;;;;;12.00;4.97;;;;;;;;;;5052308;28;20051;-73
2021/08/29 12:30:52;;;;;;;13.32;5.32;;;;;;;;;;5054363;28;20076;-73
2021/08/29 12:33:19;;;;;;;11.38;5.50;;;;;;;;;;5052316;28;20094;-73
2021/08/29 12:35:45;;;;;;;11.98;5.38;;;;;;;;;;5060568;28;20040;-73
2021/08/29 12:38:16;;;;;;;13.73;5.68;;;;;;;;;;5054500;28;20052;-73
2021/08/29 12:40:43;;;;;;;11.50;5.35;;;;;;;;;;5071139;28;20190;-73
2021/08/29 12:43:10;;;;;;;11.65;4.85;;;;;;;;;;5032762;28;20076;-73
2021/08/29 12:45:36;;;;;;;11.75;5.15;;;;;;;;;;5054255;28;20047;-73
2021/08/29 12:48:03;;;;;;;14.30;6.03;;;;;;;;;;5061268;28;20040;-73
2021/08/29 12:50:29;;;;;;;13.23;6.30;;;;;;;;;;5051096;28;20040;-73
2021/08/29 12:53:02;;;;;;;14.07;6.13;;;;;;;;;;5049122;28;20044;-73
2021/08/29 12:55:29;;;;;;;16.58;5.72;;;;;;;;;;5051445;28;20119;-73
2021/08/29 12:57:58;;;;;;;14.95;5.53;;;;;;;;;;5050648;28;20051;-73
2021/08/29 13:00:35;;;;;;;10.32;5.47;;;;;;;;;;5033172;28;20048;-73
2021/08/29 13:03:02;;;;;;;13.23;5.68;;;;;;;;;;5067795;28;20057;-73
2021/08/29 13:05:35;;;;;;;10.23;5.53;;;;;;;;;;5049591;28;20481;-73
2021/08/29 13:08:01;;;;;;;11.90;5.25;;;;;;;;;;5050518;28;20156;-73
2021/08/29 13:10:27;;;;;;;13.15;6.07;;;;;;;;;;5047989;28;20409;-74
2021/08/29 13:13:14;;;;;;;10.50;5.53;;;;;;;;;;5032957;28;20057;-71
2021/08/29 13:15:42;;;;;;;11.73;5.38;;;;;;;;;;5050889;28;20052;-72
2021/08/29 13:18:09;;;;;;;13.10;5.85;;;;;;;;;;5053262;28;21476;-72
2021/08/29 13:20:36;;;;;;;11.55;5.47;;;;;;;;;;5033336;28;20052;-72
2021/08/29 13:23:02;;;;;;;12.18;5.82;;;;;;;;;;5034193;28;20484;-72
2021/08/29 13:25:30;;;;;;;13.07;6.78;;;;;;;;;;5032189;28;20103;-72
2021/08/29 13:27:57;;;;;;;13.48;6.22;;;;;;;;;;5053141;28;20433;-72
2021/08/29 13:30:25;;;;;;;15.07;6.60;;;;;;;;;;5053176;28;20163;-72
2021/08/29 13:32:51;;;;;;;13.88;6.65;;;;;;;;;;5051270;28;20055;-72
2021/08/29 13:35:19;;;;;;;12.15;6.85;;;;;;;;;;5033748;28;20037;-72
2021/08/29 13:37:47;;;;;;;12.55;6.70;;;;;;;;;;5031609;28;20060;-72
2021/08/29 13:40:15;;;;;;;15.63;6.88;;;;;;;;;;5049541;28;20053;-72
2021/08/29 13:42:48;;;;;;;11.90;6.22;;;;;;;;;;5030891;28;20476;-72
2021/08/29 13:45:16;;;;;;;15.38;6.75;;;;;;;;;;5030695;28;20059;-72
2021/08/29 13:47:42;;;;;;;18.80;7.55;;;;;;;;;;5049282;28;20399;-72
2021/08/29 13:50:08;;;;;;;15.88;7.30;;;;;;;;;;5052224;28;20052;-72
2021/08/29 13:52:37;;;;;;;18.42;7.43;;;;;;;;;;5030788;28;20480;-72
2021/08/29 13:55:04;;;;;;;15.07;6.70;;;;;;;;;;5030541;28;20512;-71
2021/08/29 13:57:30;;;;;;;18.55;7.35;;;;;;;;;;5036536;28;20499;-72
2021/08/29 13:59:57;;;;;;;16.27;7.65;;;;;;;;;;5056532;28;20116;-72
2021/08/29 14:02:23;;;;;;;14.60;7.30;;;;;;;;;;5044414;28;20453;-72
2021/08/29 14:04:49;;;;;;;13.43;7.30;;;;;;;;;;5029588;28;20055;-72
2021/08/29 14:07:15;;;;;;;16.58;7.70;;;;;;;;;;5031370;28;20067;-72
2021/08/29 14:09:41;;;;;;;16.98;7.47;;;;;;;;;;5028913;28;20052;-71
2021/08/29 14:12:08;;;;;;;12.48;7.13;;;;;;;;;;5037800;28;20489;-72
2021/08/29 14:14:34;;;;;;;16.52;6.93;;;;;;;;;;5050744;28;20120;-72
2021/08/29 14:17:01;;;;;;;17.42;7.88;;;;;;;;;;5050296;28;20045;-72
2021/08/29 14:19:27;;;;;;;15.57;6.65;;;;;;;;;;5043225;28;20404;-72
2021/08/29 14:21:53;;;;;;;17.10;7.35;;;;;;;;;;5029337;28;20041;-72
2021/08/29 14:24:20;;;;;;;16.70;7.40;;;;;;;;;;5050217;28;20044;-72
2021/08/29 14:26:46;;;;;;;13.30;6.97;;;;;;;;;;5044512;28;20079;-72
2021/08/29 14:29:12;;;;;;;14.88;6.50;;;;;;;;;;5045312;28;20084;-72
2021/08/29 14:31:39;;;;;;;12.32;6.63;;;;;;;;;;5061916;28;20076;-72